Custom file does not exist C:\wdisplay\webfiles\testtags.txt Borgafjälls vädersida - Nearby METAR Reports

Nearby METAR Reports

 

KSJC - San Jose, California, USA
Distance from station: NO 14km
Uppdaterad: 18/05/2021 21:53
Klart
Klart
 Vind frn NNV
Vind: NNV 19 km/h, Vindby: 31 km/h
Temperatur: 22°C
Daggpunkt: 9°C
Luftfuktighet: 44%
Barometer: 1018.3 hPa
Clouds: Klart
Visibility: 16 km
2021/05/18 19:53 KSJC 181953Z 34010G17KT 10SM CLR 22/09 A3007 RMK AO2 SLP182 T02220094
KNUQ - Moffett Nas/Mtn, California, USA
Distance from station: N 14km
Uppdaterad: 14/04/2021 00:40
NOT Current

 
2021/04/13 22:40 KNUQ 132240Z AUTO RMK AO2 PNO PWINO TSNO
 
KPAO - Palo Alto, California, USA
Distance from station: NNV 23km
Uppdaterad: 18/05/2021 21:47
Klart
Klart
 Vind frn N
Vind: N 22 km/h
Temperatur: 18°C
Daggpunkt: 11°C
Luftfuktighet: 64%
Barometer: 1019 hPa
Clouds: Klart
Visibility: 16 km
2021/05/18 19:47 KPAO 181947Z 01012KT 10SM SKC 18/11 A3009
KRHV - San Jose/Reid, California, USA
Distance from station: ONO 19km
Uppdaterad: 18/05/2021 21:47
Klart
Klart
 Vind frn NV
Vind: NV 15 km/h
Temperatur: 23°C
Daggpunkt: 6°C
Luftfuktighet: 33%
Barometer: 1018.6 hPa
Clouds: Klart
Visibility: 16 km
2021/05/18 19:47 KRHV 181947Z 32008KT 10SM SKC 23/06 A3008
 
KOAK - Oakland, California, USA
Distance from station: NNV 50km
Uppdaterad: 18/05/2021 21:53
Few Clouds
Few Clouds
 Vind frn VSV
Vind: VSV 17 km/h
Temperatur: 19°C
Daggpunkt: 10°C
Luftfuktighet: 56%
Barometer: 1019 hPa
Clouds: Few Clouds
Visibility: 16 km
Cloud details: Few Clouds 305 m
2021/05/18 19:53 KOAK 181953Z 25009KT 10SM FEW010 19/10 A3009 RMK AO2 SLP190 T01890100
KSQL - San Carlos Airpo, California, USA
Distance from station: NV 34km
Uppdaterad: 18/05/2021 21:50
Klart
Klart
 Vind frn SV
Vind: SV 28 km/h
Temperatur: 22°C
Daggpunkt: 9°C
Luftfuktighet: 44%
Barometer: 1019 hPa
Clouds: Klart
Visibility: 16 km
2021/05/18 19:50 KSQL 181950Z 23015KT 10SM SKC 22/09 A3009
 
KSFO - San Francisco, California, USA
Distance from station: NV 49km
Uppdaterad: 18/05/2021 21:56
Few Clouds
Few Clouds
 Vind frn V
Vind: V 35 km/h, Vindby: 54 km/h
Temperatur: 19°C
Daggpunkt: 9°C
Luftfuktighet: 52%
Barometer: 1018.6 hPa
Clouds: Few Clouds
Visibility: 16 km
Cloud details: Few Clouds 274 m
2021/05/18 19:56 KSFO 181956Z 28019G29KT 10SM FEW009 19/09 A3008 RMK AO2 PK WND 28029/1950 SLP186 T01940089
KE16 - San Martin, California, USA
Distance from station: OSO 43km
Uppdaterad: 18/05/2021 22:15
Klart
Klart
 Vind frn NNV
Vind: NNV 24 km/h, Vindby: 33 km/h
Temperatur: 25°C
Daggpunkt: 4°C
Luftfuktighet: 26%
Barometer: 1017.9 hPa
Clouds: Klart
Visibility: 16 km
2021/05/18 20:15 KE16 182015Z AUTO 33013G18KT 10SM CLR 25/04 A3006 RMK AO2
 
KWVI - Watsonville, California, USA
Distance from station: SSO 44km
Uppdaterad: 18/05/2021 21:53
Klart
Klart
 Vind frn VSV
Vind: VSV 11 km/h
Temperatur: 19°C
Daggpunkt: 11°C
Luftfuktighet: 60%
Barometer: 1019.3 hPa
Clouds: Klart
Visibility: 16 km
2021/05/18 19:53 KWVI 181953Z AUTO 24006KT 10SM CLR 19/11 A3010 RMK AO2 SLP194 T01890106
KHAF - Half Moon Bay, California, USA
Distance from station: VNV 50km
Uppdaterad: 18/05/2021 22:35
Klart
Klart
 Vind frn NV
Vind: NV 30 km/h, Vindby: 37 km/h
Temperatur: 14°C
Daggpunkt: 10°C
Luftfuktighet: 77%
Barometer: 1020.3 hPa
Clouds: Klart
Visibility: 14 km
2021/05/18 20:35 KHAF 182035Z AUTO 32016G20KT 9SM CLR 14/10 A3013 RMK AO2
 
KHWD - Hayward, California, USA
Distance from station: N 44km
Uppdaterad: 18/05/2021 21:54
Klart
Klart
 Vind frn V
Vind: V 17 km/h
Temperatur: 19°C
Daggpunkt: 9°C
Luftfuktighet: 52%
Barometer: 1018.6 hPa
Clouds: Klart
Visibility: 16 km
2021/05/18 19:54 KHWD 181954Z 26009KT 10SM CLR 19/09 A3008 RMK AO2 SLP195 T01890094
KLVK - Livermore, California, USA
Distance from station: NNO 51km
Uppdaterad: 18/05/2021 21:53
Klart
Klart
 Vind frn V
Vind: V 17 km/h
Temperatur: 24°C
Daggpunkt: 5°C
Luftfuktighet: 29%
Barometer: 1017.6 hPa
Clouds: Klart
Visibility: 16 km
2021/05/18 19:53 KLVK 181953Z 27009KT 10SM CLR 24/05 A3005 RMK AO2 SLP172 T02390050